Terminal Aerodrome Forecast
Issued by NWS

Home | Current Version | Previous Version | Text Only | Print | Product List | Glossary On
Versions: 1 2 3 4 5 6 7 8 9 10 11 12 13 14 15 16 17 18 19 20 21 22 23 24 25 26 27
000
FTUS42 KRAH 052012 AAB
TAFRWI
TAF AMD
KRWI 052012Z 0520/0618 03008KT 3SM -RA SCT015 OVC040
      TEMPO 0520/0522 2SM +SHRA BKN007
     FM052300 35008KT 5SM -SHRA SCT005 OVC017
     FM060600 32006KT 2SM -SHRA BR SCT002 OVC005
     FM061700 33010G16KT P6SM SCT015 BKN040=

USA.gov is the U.S. government's official web portal to all federal, state and local government web resources and services.